Time;durP1;ratioP1;P1;durP2;ratioP2;P2;SDS_P1;SDS_P2;PMS_P1;PMS_P2;Temp;Humidity;BMP_temperature;BMP_pressure;BME280_temperature;BME280_humidity;BME280_pressure;Samples;Min_cycle;Max_cycle;Signal;HPM_P1;HPM_P2
2023/01/16 00:01:03;;;;;;;2.90;0.97;;;7.50;97.30;;;;;;5137110;27;20443;-57
2023/01/16 00:03:30;;;;;;;2.00;0.60;;;7.30;97.30;;;;;;5137062;27;20485;-57
2023/01/16 00:05:56;;;;;;;3.00;0.77;;;7.40;97.60;;;;;;5137015;27;20440;-58
2023/01/16 00:08:23;;;;;;;1.70;0.90;;;7.40;97.60;;;;;;5137035;27;20461;-57
2023/01/16 00:10:50;;;;;;;3.13;1.30;;;7.40;97.60;;;;;;5136585;27;20471;-57
2023/01/16 00:13:16;;;;;;;2.23;0.77;;;7.30;97.60;;;;;;5136521;27;20811;-57
2023/01/16 00:15:46;;;;;;;3.73;1.00;;;7.40;97.80;;;;;;5136479;27;20939;-58
2023/01/16 00:18:14;;;;;;;2.40;1.10;;;7.40;97.80;;;;;;5136932;27;20454;-58
2023/01/16 00:20:41;;;;;;;5.23;1.53;;;7.30;97.60;;;;;;5137140;27;20443;-58
2023/01/16 00:23:07;;;;;;;4.43;1.30;;;7.40;97.80;;;;;;5136577;27;20473;-57
2023/01/16 00:25:38;;;;;;;3.10;1.10;;;7.40;98.10;;;;;;5136710;27;20463;-58
2023/01/16 00:28:05;;;;;;;3.10;1.77;;;7.30;97.70;;;;;;5136716;27;20439;-58
2023/01/16 00:30:32;;;;;;;4.50;1.20;;;7.30;97.80;;;;;;5136542;27;20512;-58
2023/01/16 00:32:58;;;;;;;3.03;1.13;;;7.30;97.80;;;;;;5136113;27;20997;-57
2023/01/16 00:35:26;;;;;;;7.10;1.50;;;7.30;97.90;;;;;;5136486;27;20427;-58
2023/01/16 00:37:53;;;;;;;4.47;1.00;;;7.40;98.10;;;;;;5136429;27;20998;-58
2023/01/16 00:40:21;;;;;;;10.83;1.10;;;7.40;98.00;;;;;;5136152;27;20442;-58
2023/01/16 00:42:47;;;;;;;2.60;0.87;;;7.40;97.90;;;;;;5136228;27;20479;-57
2023/01/16 00:45:14;;;;;;;4.00;1.27;;;7.40;97.90;;;;;;5136563;27;20951;-58
2023/01/16 00:47:41;;;;;;;4.33;1.27;;;7.40;97.80;;;;;;5136359;27;20458;-58
2023/01/16 00:50:09;;;;;;;5.70;1.50;;;7.30;97.60;;;;;;5136463;27;20468;-58
2023/01/16 00:52:37;;;;;;;3.83;1.30;;;7.30;97.70;;;;;;5135958;27;20980;-57
2023/01/16 00:55:04;;;;;;;4.13;1.17;;;7.30;97.70;;;;;;5136122;27;20454;-58
2023/01/16 00:57:31;;;;;;;5.03;1.53;;;7.20;97.60;;;;;;5135716;27;20942;-58
2023/01/16 00:59:58;;;;;;;1.13;0.97;;;7.20;97.60;;;;;;5135752;27;20939;-58
2023/01/16 01:02:25;;;;;;;4.17;0.83;;;7.20;97.60;;;;;;5135876;27;20463;-58
2023/01/16 01:04:51;;;;;;;4.27;1.17;;;7.20;97.60;;;;;;5136230;27;20434;-58
2023/01/16 01:07:18;;;;;;;1.90;1.00;;;7.20;97.50;;;;;;5135853;27;20450;-57
2023/01/16 01:09:46;;;;;;;7.17;1.47;;;7.20;97.60;;;;;;5135797;27;20478;-58
2023/01/16 01:12:13;;;;;;;3.80;1.17;;;7.20;97.60;;;;;;5135282;27;20470;-58
2023/01/16 01:14:39;;;;;;;5.30;1.37;;;7.20;97.70;;;;;;5135785;27;20451;-58
2023/01/16 01:17:06;;;;;;;5.43;1.20;;;7.20;97.70;;;;;;5135746;27;20446;-59
2023/01/16 01:19:33;;;;;;;3.07;1.10;;;7.30;97.70;;;;;;5135625;27;20450;-59
2023/01/16 01:22:00;;;;;;;3.50;1.00;;;7.30;97.50;;;;;;5118720;27;20514;-57
2023/01/16 01:24:26;;;;;;;3.10;1.17;;;7.30;97.80;;;;;;5114994;28;20816;-58
2023/01/16 01:26:54;;;;;;;3.43;0.90;;;7.30;97.30;;;;;;5115049;28;20437;-58
2023/01/16 01:29:21;;;;;;;5.30;1.47;;;7.30;97.40;;;;;;5115086;28;20505;-58
2023/01/16 01:31:48;;;;;;;2.03;0.90;;;7.30;97.40;;;;;;5114680;28;20474;-57
2023/01/16 01:34:14;;;;;;;2.70;1.00;;;7.30;97.40;;;;;;5115293;28;20448;-58
2023/01/16 01:36:41;;;;;;;4.10;1.63;;;7.30;97.50;;;;;;5114844;28;20477;-58
2023/01/16 01:39:08;;;;;;;3.00;1.27;;;7.30;97.40;;;;;;5114715;28;20462;-58
2023/01/16 01:41:34;;;;;;;3.87;0.90;;;7.40;97.30;;;;;;5114512;28;20482;-57
2023/01/16 01:44:03;;;;;;;8.17;1.30;;;7.40;97.30;;;;;;5114569;28;20458;-57
2023/01/16 01:46:33;;;;;;;4.13;1.50;;;7.40;97.50;;;;;;5114578;28;20457;-58
2023/01/16 01:49:05;;;;;;;5.27;3.00;;;7.40;97.50;;;;;;5114108;28;20451;-58
2023/01/16 01:51:36;;;;;;;1.60;0.73;;;7.40;97.50;;;;;;5114385;28;22304;-58
2023/01/16 01:54:06;;;;;;;4.33;1.10;;;7.30;97.60;;;;;;5114499;28;20791;-58
2023/01/16 01:56:37;;;;;;;4.10;1.17;;;7.30;97.40;;;;;;5114463;28;20432;-58
2023/01/16 01:59:11;;;;;;;1.97;0.90;;;7.30;97.60;;;;;;5114486;28;20437;-59
2023/01/16 02:01:39;;;;;;;2.93;1.00;;;7.30;97.70;;;;;;5114304;28;20468;-58
2023/01/16 02:04:10;;;;;;;3.03;1.03;;;7.20;97.80;;;;;;5114268;28;20478;-58
2023/01/16 02:06:44;;;;;;;3.33;1.33;;;7.20;97.90;;;;;;5114315;28;20429;-58
2023/01/16 02:09:12;;;;;;;7.30;1.10;;;7.20;97.80;;;;;;5114236;28;20914;-58
2023/01/16 02:11:44;;;;;;;3.33;0.93;;;7.20;98.00;;;;;;5113873;28;20478;-58
2023/01/16 02:14:16;;;;;;;6.10;1.13;;;7.20;98.00;;;;;;5114204;28;20436;-58
2023/01/16 02:19:36;;;;;;;2.50;1.00;;;7.20;98.10;;;;;;5114063;28;20457;-58
2023/01/16 02:22:37;;;;;;;0.97;0.60;;;7.20;98.00;;;;;;5114006;28;20816;-57
2023/01/16 02:25:40;;;;;;;3.33;1.03;;;7.20;98.00;;;;;;5114039;28;20446;-58
2023/01/16 02:28:44;;;;;;;1.67;0.80;;;7.20;97.90;;;;;;5114004;28;20430;-58
2023/01/16 02:31:23;;;;;;;2.50;0.80;;;7.20;97.70;;;;;;5113989;28;20463;-57
2023/01/16 02:34:02;;;;;;;3.63;1.00;;;7.20;97.70;;;;;;5113630;28;20903;-58
2023/01/16 02:36:38;;;;;;;1.33;0.60;;;7.10;97.80;;;;;;5113805;28;20436;-57
2023/01/16 02:39:12;;;;;;;2.80;1.17;;;7.10;97.90;;;;;;5114487;28;20428;-59
2023/01/16 02:41:47;;;;;;;3.87;0.80;;;7.10;97.80;;;;;;5113420;28;20474;-58
2023/01/16 02:44:23;;;;;;;1.80;0.63;;;7.00;97.90;;;;;;5113789;28;20426;-57
2023/01/16 02:47:04;;;;;;;2.90;0.80;;;7.00;98.10;;;;;;5113581;28;20439;-59
2023/01/16 02:49:40;;;;;;;2.27;0.67;;;6.90;98.00;;;;;;5113837;28;20432;-59
2023/01/16 02:52:13;;;;;;;1.90;0.80;;;6.90;97.90;;;;;;5113675;28;20463;-58
2023/01/16 02:54:46;;;;;;;3.30;0.90;;;6.90;98.00;;;;;;5113814;28;20432;-58
2023/01/16 02:57:17;;;;;;;4.93;1.10;;;6.90;97.80;;;;;;5113862;28;20445;-58
2023/01/16 02:59:44;;;;;;;1.77;0.80;;;6.90;98.00;;;;;;5115155;28;20431;-58
2023/01/16 03:02:13;;;;;;;2.07;1.03;;;6.90;97.90;;;;;;5118050;28;20482;-58
2023/01/16 03:04:43;;;;;;;1.73;0.60;;;6.90;98.10;;;;;;5118378;28;20482;-58
2023/01/16 03:07:26;;;;;;;1.23;0.73;;;6.90;98.10;;;;;;5117851;28;20922;-59
2023/01/16 03:10:05;;;;;;;3.60;1.00;;;6.80;97.90;;;;;;5118364;28;20469;-58
2023/01/16 03:12:45;;;;;;;2.10;1.00;;;6.90;98.10;;;;;;5118576;28;20496;-58
2023/01/16 03:15:16;;;;;;;2.23;1.03;;;6.80;98.20;;;;;;5118912;28;20439;-58
2023/01/16 03:17:55;;;;;;;1.53;0.90;;;6.70;98.40;;;;;;5117914;28;20908;-58
2023/01/16 03:20:35;;;;;;;1.30;0.90;;;6.70;98.60;;;;;;5117618;28;20799;-58
2023/01/16 03:23:10;;;;;;;2.70;0.87;;;6.70;98.80;;;;;;5117565;28;20467;-57
2023/01/16 03:25:43;;;;;;;2.40;0.80;;;6.70;98.70;;;;;;5117724;28;20437;-58
2023/01/16 03:28:14;;;;;;;2.00;0.80;;;6.70;98.70;;;;;;5117965;28;20435;-58
2023/01/16 03:30:50;;;;;;;1.00;1.00;;;6.60;98.80;;;;;;5118091;28;20466;-58
2023/01/16 03:33:24;;;;;;;3.97;0.90;;;6.60;98.70;;;;;;5118117;28;20470;-58
2023/01/16 03:35:55;;;;;;;3.40;0.90;;;6.50;98.80;;;;;;5117260;28;20450;-58
2023/01/16 03:38:24;;;;;;;1.60;0.97;;;6.40;99.00;;;;;;5117194;28;20438;-59
2023/01/16 03:40:53;;;;;;;1.07;0.57;;;6.40;99.10;;;;;;5116955;28;20476;-58
2023/01/16 03:43:23;;;;;;;2.10;0.67;;;6.40;99.20;;;;;;5116872;28;20465;-57
2023/01/16 03:45:55;;;;;;;0.80;0.60;;;6.40;99.40;;;;;;5116890;27;20432;-58
2023/01/16 03:48:28;;;;;;;0.77;0.67;;;6.40;99.50;;;;;;5116958;28;20435;-58
2023/01/16 03:51:01;;;;;;;0.73;0.70;;;6.40;99.60;;;;;;5116926;28;20494;-58
2023/01/16 03:53:32;;;;;;;1.33;0.70;;;6.40;99.40;;;;;;5116838;28;20474;-58
2023/01/16 03:56:08;;;;;;;1.40;0.60;;;6.40;99.30;;;;;;5116911;28;20487;-58
2023/01/16 03:58:37;;;;;;;1.47;0.60;;;6.40;99.40;;;;;;5116903;28;20435;-58
2023/01/16 04:01:14;;;;;;;1.60;0.70;;;6.30;99.50;;;;;;5116784;28;20424;-58
2023/01/16 04:03:50;;;;;;;2.10;0.70;;;6.30;99.80;;;;;;5116708;28;20431;-58
2023/01/16 04:06:23;;;;;;;1.70;0.60;;;6.30;99.80;;;;;;5116196;28;20922;-58
2023/01/16 04:08:52;;;;;;;1.07;0.73;;;6.30;99.80;;;;;;5116743;28;20509;-58
2023/01/16 04:11:21;;;;;;;2.27;0.70;;;6.40;99.70;;;;;;5116103;28;20492;-58
2023/01/16 04:13:53;;;;;;;0.97;0.70;;;6.40;99.20;;;;;;5116385;28;20446;-58
2023/01/16 04:16:21;;;;;;;0.77;0.50;;;6.40;99.20;;;;;;5116279;28;20428;-58
2023/01/16 04:18:52;;;;;;;1.23;0.57;;;6.40;99.20;;;;;;5116231;28;20459;-58
2023/01/16 04:21:19;;;;;;;3.03;0.70;;;6.40;99.40;;;;;;5116140;27;20816;-58
2023/01/16 04:23:46;;;;;;;0.70;0.50;;;6.50;99.30;;;;;;5116182;28;20469;-58
2023/01/16 04:26:13;;;;;;;2.17;0.77;;;6.50;98.90;;;;;;5116198;28;20470;-58
2023/01/16 04:28:39;;;;;;;0.80;0.60;;;6.60;98.90;;;;;;5116339;27;20447;-58
2023/01/16 04:31:06;;;;;;;2.20;0.63;;;6.60;98.90;;;;;;5115973;28;20498;-58
2023/01/16 04:33:33;;;;;;;0.80;0.80;;;6.60;98.70;;;;;;5115617;28;20982;-58
2023/01/16 04:36:01;;;;;;;0.87;0.60;;;6.60;98.60;;;;;;5115568;28;20943;-57
2023/01/16 04:38:27;;;;;;;2.83;0.60;;;6.70;98.70;;;;;;5116153;28;20447;-59
2023/01/16 04:40:54;;;;;;;1.67;0.63;;;6.70;98.60;;;;;;5115742;28;20463;-59
2023/01/16 04:43:21;;;;;;;1.13;0.87;;;6.80;98.60;;;;;;5115714;27;20496;-57
2023/01/16 04:45:48;;;;;;;2.50;1.00;;;6.80;98.50;;;;;;5115764;28;20463;-58
2023/01/16 04:48:15;;;;;;;1.20;0.70;;;6.90;98.50;;;;;;5115801;28;20447;-58
2023/01/16 04:50:41;;;;;;;3.03;0.90;;;6.90;98.50;;;;;;5115596;28;20470;-58
2023/01/16 04:53:09;;;;;;;1.30;0.97;;;6.90;98.50;;;;;;5115519;28;21017;-58
2023/01/16 04:55:36;;;;;;;1.87;1.00;;;7.00;98.50;;;;;;5115693;28;20850;-59
2023/01/16 04:58:03;;;;;;;5.70;1.47;;;7.00;98.50;;;;;;5115645;28;20436;-58
2023/01/16 05:00:30;;;;;;;5.20;1.07;;;7.10;98.50;;;;;;5115194;28;20431;-58
2023/01/16 05:02:56;;;;;;;3.93;0.93;;;7.10;98.50;;;;;;5115397;28;20468;-59
2023/01/16 05:05:23;;;;;;;1.27;0.90;;;7.10;98.40;;;;;;5115454;28;20455;-59
2023/01/16 05:08:15;;;;;;;3.23;1.00;;;7.10;98.40;;;;;;5115484;28;20451;-58
2023/01/16 05:10:40;;;;;;;3.60;1.00;;;7.10;98.40;;;;;;5114788;28;20488;-57
2023/01/16 05:13:07;;;;;;;3.87;1.10;;;7.10;98.50;;;;;;5115332;28;20478;-58
2023/01/16 05:15:34;;;;;;;3.30;1.17;;;7.10;98.50;;;;;;5115263;28;20459;-59
2023/01/16 05:18:00;;;;;;;3.13;0.97;;;7.10;98.50;;;;;;5114818;28;20452;-59
2023/01/16 05:20:27;;;;;;;2.53;1.20;;;7.20;98.60;;;;;;5114739;28;20981;-57
2023/01/16 05:22:54;;;;;;;2.87;1.07;;;7.20;98.70;;;;;;5114048;28;20471;-58
2023/01/16 05:25:21;;;;;;;1.40;1.10;;;7.20;98.70;;;;;;5114790;28;20448;-58
2023/01/16 05:27:51;;;;;;;2.03;1.43;;;7.20;98.60;;;;;;5115059;28;20454;-58
2023/01/16 05:30:18;;;;;;;3.97;1.03;;;7.30;98.70;;;;;;5114944;28;20492;-58
2023/01/16 05:32:45;;;;;;;6.83;1.70;;;7.30;99.00;;;;;;5115023;28;20480;-59
2023/01/16 05:35:12;;;;;;;3.70;1.27;;;7.30;98.60;;;;;;5114505;28;20791;-59
2023/01/16 05:37:38;;;;;;;4.83;1.27;;;7.30;98.60;;;;;;5115010;28;20425;-58
2023/01/16 05:40:06;;;;;;;7.13;1.73;;;7.30;98.60;;;;;;5114713;28;20457;-58
2023/01/16 05:42:33;;;;;;;2.03;1.03;;;7.30;98.60;;;;;;5114534;28;20463;-58
2023/01/16 05:45:01;;;;;;;1.10;0.83;;;7.30;98.40;;;;;;5114839;28;20459;-58
2023/01/16 05:47:28;;;;;;;3.90;1.50;;;7.30;98.30;;;;;;5115249;28;20444;-58
2023/01/16 05:49:57;;;;;;;2.60;1.30;;;7.30;98.40;;;;;;5115445;28;20945;-58
2023/01/16 05:52:24;;;;;;;6.73;1.40;;;7.30;98.50;;;;;;5114523;28;20854;-58
2023/01/16 05:54:51;;;;;;;4.00;1.33;;;7.30;98.40;;;;;;5114629;28;20457;-57
2023/01/16 05:57:18;;;;;;;4.90;1.03;;;7.30;98.40;;;;;;5114710;28;20575;-58
2023/01/16 05:59:47;;;;;;;1.67;1.17;;;7.30;98.30;;;;;;5114681;28;20818;-58
2023/01/16 06:02:15;;;;;;;2.20;0.90;;;7.30;98.20;;;;;;5114080;28;20456;-58
2023/01/16 06:04:42;;;;;;;3.87;1.20;;;7.30;98.20;;;;;;5113832;28;20807;-58
2023/01/16 06:07:09;;;;;;;2.60;1.00;;;7.30;98.20;;;;;;5114347;28;20428;-58
2023/01/16 06:09:36;;;;;;;3.23;1.30;;;7.30;98.00;;;;;;5114312;28;20424;-58
2023/01/16 06:12:02;;;;;;;3.17;0.90;;;7.30;98.10;;;;;;5114335;28;20484;-57
2023/01/16 06:14:29;;;;;;;5.03;0.90;;;7.40;98.00;;;;;;5114153;28;20447;-57
2023/01/16 06:16:56;;;;;;;2.23;1.00;;;7.30;98.10;;;;;;5114185;28;20452;-58
2023/01/16 06:19:24;;;;;;;2.17;1.00;;;7.30;98.10;;;;;;5114161;28;20460;-58
2023/01/16 06:21:50;;;;;;;1.53;0.90;;;7.30;98.20;;;;;;5114194;28;20472;-58
2023/01/16 06:24:17;;;;;;;1.77;0.90;;;7.30;98.20;;;;;;5114196;28;20444;-58
2023/01/16 06:26:44;;;;;;;3.10;2.10;;;7.30;98.20;;;;;;5114194;28;20427;-58
2023/01/16 06:29:11;;;;;;;4.83;1.07;;;7.30;98.40;;;;;;5114031;28;20459;-57
2023/01/16 06:31:38;;;;;;;3.40;0.87;;;7.30;98.40;;;;;;5113933;28;20485;-58
2023/01/16 06:34:04;;;;;;;2.53;0.73;;;7.30;98.40;;;;;;5113753;28;20914;-58
2023/01/16 06:36:33;;;;;;;2.73;0.87;;;7.30;98.50;;;;;;5114004;28;20451;-58
2023/01/16 06:38:59;;;;;;;1.50;0.87;;;7.40;98.40;;;;;;5113726;28;20938;-57
2023/01/16 06:41:26;;;;;;;0.80;0.63;;;7.40;98.20;;;;;;5113621;28;20458;-57
2023/01/16 06:43:53;;;;;;;3.20;0.77;;;7.40;98.10;;;;;;5113742;28;20450;-58
2023/01/16 06:46:20;;;;;;;6.50;2.03;;;7.40;98.20;;;;;;5113925;28;20814;-58
2023/01/16 06:48:46;;;;;;;0.83;0.67;;;7.40;98.20;;;;;;5113911;28;20991;-58
2023/01/16 06:51:13;;;;;;;3.20;1.00;;;7.40;98.00;;;;;;5113824;28;20475;-58
2023/01/16 06:53:41;;;;;;;1.30;1.00;;;7.40;98.10;;;;;;5113903;28;20445;-58
2023/01/16 06:56:08;;;;;;;1.23;0.80;;;7.40;98.10;;;;;;5113886;28;20455;-58
2023/01/16 06:58:35;;;;;;;2.13;0.80;;;7.40;98.10;;;;;;5113722;28;20943;-58
2023/01/16 07:01:01;;;;;;;3.57;0.70;;;7.50;97.90;;;;;;5113800;28;20452;-58
2023/01/16 07:03:28;;;;;;;4.13;1.10;;;7.50;97.90;;;;;;5113689;28;20468;-57
2023/01/16 07:05:55;;;;;;;1.27;0.93;;;7.50;97.90;;;;;;5113683;28;20448;-58
2023/01/16 07:08:21;;;;;;;2.47;1.43;;;7.50;97.70;;;;;;5113609;28;20444;-58
2023/01/16 07:10:49;;;;;;;3.57;1.07;;;7.50;97.70;;;;;;5113935;28;20444;-58
2023/01/16 07:13:16;;;;;;;3.17;1.40;;;7.50;97.70;;;;;;5113173;28;21014;-57
2023/01/16 07:24:02;;;;;;;3.10;0.90;;;7.50;97.90;;;;;;5113297;28;20454;-58
2023/01/16 07:26:31;;;;;;;5.17;1.30;;;7.50;97.80;;;;;;5113467;28;20452;-58
2023/01/16 07:28:59;;;;;;;5.70;1.37;;;7.40;97.90;;;;;;5113151;28;20983;-58
2023/01/16 07:31:26;;;;;;;1.77;1.00;;;7.40;98.10;;;;;;5113227;28;20490;-58
2023/01/16 07:33:53;;;;;;;2.30;1.00;;;7.50;98.40;;;;;;5113381;28;20444;-58
2023/01/16 07:36:19;;;;;;;4.60;1.10;;;7.40;98.50;;;;;;5113532;28;20457;-58
2023/01/16 07:38:46;;;;;;;3.37;1.37;;;7.50;98.60;;;;;;5113388;28;20506;-58
2023/01/16 07:41:13;;;;;;;3.27;1.27;;;7.40;98.60;;;;;;5112892;28;20528;-58
2023/01/16 07:43:42;;;;;;;4.07;1.40;;;7.40;98.80;;;;;;5113302;28;20442;-57
2023/01/16 07:46:08;;;;;;;2.50;1.60;;;7.40;98.70;;;;;;5114952;28;20448;-57
2023/01/16 07:48:35;;;;;;;3.47;1.40;;;7.30;99.00;;;;;;5117495;28;20459;-56
2023/01/16 07:51:02;;;;;;;10.50;1.60;;;7.30;99.30;;;;;;5116446;28;20959;-56
2023/01/16 07:53:30;;;;;;;2.07;1.50;;;7.30;99.60;;;;;;5116782;28;20467;-57
2023/01/16 07:55:58;;;;;;;4.43;1.80;;;7.30;99.90;;;;;;5116451;28;20451;-57
2023/01/16 07:58:25;;;;;;;4.00;1.40;;;7.20;99.90;;;;;;5116754;28;20454;-57
2023/01/16 08:00:55;;;;;;;5.00;1.53;;;7.10;99.90;;;;;;5116730;28;20427;-56
2023/01/16 08:03:22;;;;;;;2.50;1.43;;;7.10;99.90;;;;;;5116794;28;20465;-57
2023/01/16 08:05:49;;;;;;;3.60;2.10;;;7.10;99.90;;;;;;5116630;28;20454;-57
2023/01/16 08:08:18;;;;;;;3.60;2.00;;;7.10;99.90;;;;;;5116519;28;20508;-57
2023/01/16 08:10:45;;;;;;;4.70;1.90;;;7.20;99.90;;;;;;5116661;28;20440;-57
2023/01/16 08:13:11;;;;;;;2.67;1.40;;;7.10;99.90;;;;;;5116588;28;20486;-57
2023/01/16 08:15:38;;;;;;;2.40;1.80;;;7.10;99.90;;;;;;5116176;28;20930;-57
2023/01/16 08:18:06;;;;;;;4.10;1.40;;;7.10;99.90;;;;;;5116481;28;20456;-58
2023/01/16 08:20:33;;;;;;;2.20;2.00;;;7.10;99.90;;;;;;5116332;27;20443;-57
2023/01/16 08:23:00;;;;;;;5.77;1.50;;;7.10;99.90;;;;;;5116524;28;20474;-57
2023/01/16 08:25:27;;;;;;;5.57;1.87;;;7.10;99.90;;;;;;5116312;28;20530;-57
2023/01/16 08:27:54;;;;;;;7.23;3.60;;;7.10;99.90;;;;;;5116316;28;20432;-58
2023/01/16 08:30:21;;;;;;;4.23;1.87;;;7.10;99.90;;;;;;5116119;28;20448;-57
2023/01/16 08:32:47;;;;;;;8.37;1.90;;;7.10;99.90;;;;;;5115689;28;20487;-57
2023/01/16 08:35:16;;;;;;;5.27;1.80;;;7.00;99.90;;;;;;5115977;28;20610;-56
2023/01/16 08:37:50;;;;;;;5.50;1.70;;;7.00;99.90;;;;;;5116121;28;20537;-56
2023/01/16 08:40:17;;;;;;;6.47;2.73;;;7.10;99.90;;;;;;5115862;28;20462;-56
2023/01/16 08:53:45;;;;;;;6.13;1.90;;;7.00;99.90;;;;;;5112097;28;20446;-56
2023/01/16 08:56:12;;;;;;;2.50;2.20;;;6.90;99.90;;;;;;5115607;28;20437;-57
2023/01/16 08:58:38;;;;;;;5.50;1.50;;;6.90;99.90;;;;;;5114704;28;20930;-57
2023/01/16 09:01:06;;;;;;;5.90;2.17;;;6.90;99.90;;;;;;5115254;28;20961;-56
2023/01/16 09:03:34;;;;;;;4.47;1.80;;;6.90;99.90;;;;;;5115459;28;20468;-57
2023/01/16 09:06:02;;;;;;;2.00;1.37;;;6.90;99.90;;;;;;5115911;28;20486;-56
2023/01/16 09:08:29;;;;;;;5.43;2.10;;;6.90;99.90;;;;;;5115488;28;20786;-57
2023/01/16 09:13:52;;;;;;;2.80;1.20;;;6.80;99.90;;;;;;5115211;28;20394;-57
2023/01/16 09:16:20;;;;;;;2.10;1.63;;;6.90;99.90;;;;;;5115313;28;20431;-57
2023/01/16 09:18:47;;;;;;;1.83;1.27;;;6.90;99.90;;;;;;5115175;28;20939;-57
2023/01/16 09:21:16;;;;;;;4.67;1.70;;;6.90;99.90;;;;;;5115230;28;20795;-57
2023/01/16 09:23:42;;;;;;;1.63;1.20;;;6.90;99.90;;;;;;5115286;28;20435;-57
2023/01/16 09:26:09;;;;;;;3.30;1.90;;;6.80;99.90;;;;;;5114995;28;20941;-57
2023/01/16 09:28:36;;;;;;;3.53;1.60;;;6.80;99.90;;;;;;5115441;28;20454;-57
2023/01/16 09:31:03;;;;;;;5.73;2.13;;;6.90;99.90;;;;;;5115171;28;20454;-57
2023/01/16 09:33:29;;;;;;;1.07;1.07;;;6.80;99.90;;;;;;5114510;28;20907;-57
2023/01/16 09:35:56;;;;;;;1.53;1.27;;;6.80;99.90;;;;;;5114820;28;20832;-57
2023/01/16 09:38:24;;;;;;;5.20;0.93;;;6.90;99.90;;;;;;5115105;28;20456;-57
2023/01/16 09:40:54;;;;;;;3.60;1.30;;;6.90;99.90;;;;;;5115231;28;20469;-56
2023/01/16 09:43:35;;;;;;;3.20;1.23;;;6.90;99.90;;;;;;5115148;28;20468;-57
2023/01/16 09:46:05;;;;;;;4.97;1.20;;;6.90;99.90;;;;;;5116208;28;20448;-57
2023/01/16 09:48:34;;;;;;;2.80;1.30;;;6.90;99.90;;;;;;5115696;28;20450;-57
2023/01/16 09:51:06;;;;;;;5.73;1.70;;;6.90;99.90;;;;;;5116771;28;20439;-56
2023/01/16 09:59:29;;;;;;;3.20;1.50;;;6.90;99.90;;;;;;5072028;28;20429;-57
2023/01/16 10:02:00;;;;;;;2.63;1.00;;;6.80;99.60;;;;;;5106386;28;20462;-58
2023/01/16 10:04:29;;;;;;;3.53;1.13;;;6.80;99.90;;;;;;5115988;28;20453;-57
2023/01/16 10:07:12;;;;;;;2.13;1.40;;;6.90;99.70;;;;;;5114915;28;20427;-58
2023/01/16 10:09:47;;;;;;;2.53;1.23;;;6.90;99.50;;;;;;5113801;28;20804;-57
2023/01/16 10:12:14;;;;;;;1.80;1.27;;;6.90;99.60;;;;;;5114157;28;20490;-57
2023/01/16 10:14:54;;;;;;;3.70;1.20;;;7.00;99.70;;;;;;5114473;28;20455;-58
2023/01/16 10:17:28;;;;;;;1.97;1.40;;;7.10;99.50;;;;;;5113934;28;20900;-58
2023/01/16 10:20:18;;;;;;;2.30;2.10;;;7.10;99.10;;;;;;5113898;28;20911;-58
2023/01/16 10:23:01;;;;;;;1.13;1.00;;;7.10;99.10;;;;;;5114031;28;20469;-57
2023/01/16 10:25:32;;;;;;;1.57;0.80;;;7.20;99.00;;;;;;5114004;28;20434;-57
2023/01/16 10:28:13;;;;;;;1.80;1.50;;;7.30;98.60;;;;;;5114105;28;20435;-58
2023/01/16 10:30:47;;;;;;;2.60;1.17;;;7.30;98.30;;;;;;5121507;27;20469;-57
2023/01/16 10:33:21;;;;;;;2.07;0.93;;;7.30;98.20;;;;;;5134056;27;20490;-57
2023/01/16 10:35:50;;;;;;;1.40;1.00;;;7.30;97.80;;;;;;5134805;27;20430;-58
2023/01/16 10:38:40;;;;;;;1.53;0.73;;;7.30;97.80;;;;;;5134975;28;20470;-57
2023/01/16 10:49:27;;;;;;;2.83;0.93;;;7.50;96.90;;;;;;5113712;28;20403;-57
2023/01/16 10:51:54;;;;;;;0.87;0.60;;;7.60;97.50;;;;;;5113618;28;20460;-58
2023/01/16 10:54:20;;;;;;;1.63;1.40;;;7.60;97.40;;;;;;5113762;28;20415;-58
2023/01/16 10:56:48;;;;;;;1.37;0.70;;;7.70;96.70;;;;;;5113696;28;20444;-58
2023/01/16 10:59:16;;;;;;;1.50;0.60;;;7.80;96.50;;;;;;5114554;28;20429;-58
2023/01/16 11:01:43;;;;;;;1.57;1.07;;;7.80;96.00;;;;;;5113550;28;20473;-57
2023/01/16 11:04:11;;;;;;;0.93;0.73;;;7.80;96.10;;;;;;5113628;28;20463;-58
2023/01/16 11:06:41;;;;;;;0.70;0.60;;;7.90;96.10;;;;;;5113658;28;20425;-58
2023/01/16 11:09:18;;;;;;;3.20;0.70;;;8.10;95.90;;;;;;5113309;28;21026;-58
2023/01/16 11:20:17;;;;;;;1.40;0.70;;;8.30;95.50;;;;;;5113969;28;20904;-58
2023/01/16 11:22:47;;;;;;;0.90;0.83;;;8.40;95.30;;;;;;5117257;28;20828;-57
2023/01/16 11:25:17;;;;;;;1.70;1.07;;;8.50;94.90;;;;;;5117534;28;20449;-57
2023/01/16 11:27:46;;;;;;;1.30;1.00;;;8.60;94.30;;;;;;5117270;27;20427;-58
2023/01/16 11:30:19;;;;;;;3.20;0.90;;;8.60;94.20;;;;;;5118274;28;20424;-58
2023/01/16 11:32:49;;;;;;;1.63;0.80;;;8.70;94.20;;;;;;5116906;28;20492;-57
2023/01/16 11:35:18;;;;;;;2.80;0.80;;;8.70;94.00;;;;;;5117249;27;20457;-58
2023/01/16 11:37:49;;;;;;;0.70;0.70;;;8.80;94.60;;;;;;5116973;28;20453;-59
2023/01/16 11:40:19;;;;;;;1.43;0.83;;;8.90;94.70;;;;;;5116865;28;20454;-57
2023/01/16 11:48:27;;;;;;;1.07;0.70;;;9.00;94.70;;;;;;5115320;28;20450;-57
2023/01/16 11:50:56;;;;;;;1.80;0.90;;;9.00;93.80;;;;;;5116862;28;20431;-59
2023/01/16 11:53:23;;;;;;;0.73;0.73;;;9.00;93.80;;;;;;5116412;28;20493;-58
2023/01/16 11:56:03;;;;;;;1.50;1.30;;;8.90;94.00;;;;;;5116750;28;20458;-58
2023/01/16 11:58:38;;;;;;;1.27;0.77;;;9.00;94.10;;;;;;5116732;27;20434;-58
2023/01/16 12:01:12;;;;;;;0.73;0.63;;;8.90;94.20;;;;;;5116514;28;20424;-59
2023/01/16 12:04:03;;;;;;;1.03;0.63;;;8.80;94.60;;;;;;5116649;28;20434;-59
2023/01/16 12:06:53;;;;;;;1.17;0.80;;;8.70;94.90;;;;;;5116640;28;20434;-58
2023/01/16 12:09:37;;;;;;;1.93;0.80;;;8.70;95.30;;;;;;5116635;28;20510;-59
2023/01/16 12:15:10;;;;;;;1.10;0.93;;;8.60;95.90;;;;;;5116364;28;20414;-58
2023/01/16 12:17:50;;;;;;;0.80;0.80;;;8.50;96.30;;;;;;5116448;28;20427;-58
2023/01/16 12:20:26;;;;;;;1.20;1.10;;;8.50;96.60;;;;;;5116382;28;20433;-57
2023/01/16 12:23:14;;;;;;;0.70;0.63;;;8.50;96.80;;;;;;5116330;28;20496;-57
2023/01/16 12:25:50;;;;;;;1.10;0.97;;;8.50;96.70;;;;;;5115986;28;20488;-57
2023/01/16 12:28:25;;;;;;;0.70;0.70;;;8.50;97.10;;;;;;5116238;28;20520;-58
2023/01/16 12:31:21;;;;;;;0.90;0.90;;;8.50;97.40;;;;;;5116192;28;20448;-58
2023/01/16 12:33:57;;;;;;;3.10;0.93;;;8.40;97.20;;;;;;5116027;28;20478;-57
2023/01/16 12:36:31;;;;;;;2.93;0.90;;;8.40;97.50;;;;;;5115876;28;20439;-56
2023/01/16 12:39:08;;;;;;;2.30;0.87;;;8.40;97.90;;;;;;5116003;28;20427;-57
2023/01/16 12:44:40;;;;;;;1.23;1.07;;;8.30;98.40;;;;;;5115961;28;20406;-57
2023/01/16 12:47:36;;;;;;;2.10;0.70;;;8.30;98.50;;;;;;5115892;28;20787;-57
2023/01/16 12:50:16;;;;;;;1.47;1.07;;;8.30;98.90;;;;;;5113986;28;20461;-57
2023/01/16 12:53:01;;;;;;;0.97;0.90;;;8.30;99.00;;;;;;5115534;28;20546;-58
2023/01/16 12:55:41;;;;;;;1.43;0.90;;;8.30;98.80;;;;;;5115707;28;20490;-57
2023/01/16 12:58:15;;;;;;;1.73;1.17;;;8.30;99.10;;;;;;5115790;28;20434;-58
2023/01/16 13:00:45;;;;;;;3.07;1.90;;;8.30;98.90;;;;;;5115263;28;20537;-58
2023/01/16 13:03:27;;;;;;;0.90;0.90;;;8.30;98.50;;;;;;5115469;28;20470;-57
2023/01/16 13:05:59;;;;;;;1.10;1.03;;;8.30;98.50;;;;;;5115543;28;20427;-58
2023/01/16 13:08:29;;;;;;;1.30;1.20;;;8.20;97.90;;;;;;5115201;28;20440;-58
2023/01/16 13:13:52;;;;;;;2.77;1.40;;;8.20;98.50;;;;;;5115354;28;20507;-57
2023/01/16 13:16:26;;;;;;;3.37;1.30;;;8.10;98.60;;;;;;5115312;28;20429;-58
2023/01/16 13:18:55;;;;;;;1.40;1.10;;;8.10;99.10;;;;;;5114947;28;20915;-58
2023/01/16 13:21:27;;;;;;;2.50;1.30;;;8.10;99.10;;;;;;5114953;27;20959;-56
2023/01/16 13:23:57;;;;;;;2.30;1.20;;;8.10;99.30;;;;;;5115090;28;20440;-56
2023/01/16 13:26:26;;;;;;;2.50;1.40;;;8.10;99.60;;;;;;5114875;28;20428;-56
2023/01/16 13:29:00;;;;;;;1.20;1.10;;;8.10;99.80;;;;;;5114736;28;20938;-56
2023/01/16 13:31:32;;;;;;;2.27;1.53;;;8.00;99.90;;;;;;5114913;28;20429;-56
2023/01/16 13:34:06;;;;;;;2.87;1.53;;;8.00;99.90;;;;;;5114779;28;20485;-57
2023/01/16 13:37:13;;;;;;;1.30;1.17;;;7.90;99.90;;;;;;5115118;28;20433;-57
2023/01/16 13:40:18;;;;;;;3.87;1.47;;;7.90;99.90;;;;;;5114421;28;20456;-57
2023/01/16 13:42:52;;;;;;;2.47;1.20;;;7.90;99.90;;;;;;5112311;28;20889;-56
2023/01/16 13:45:48;;;;;;;2.00;1.47;;;7.80;99.90;;;;;;5114488;28;20442;-57
2023/01/16 13:48:17;;;;;;;1.10;1.00;;;7.70;99.90;;;;;;5114695;28;20528;-57
2023/01/16 13:50:50;;;;;;;2.73;1.77;;;7.70;99.90;;;;;;5114255;28;20491;-57
2023/01/16 13:53:20;;;;;;;1.60;1.50;;;7.70;99.90;;;;;;5114424;28;20855;-57
2023/01/16 13:55:46;;;;;;;3.77;2.00;;;7.60;99.90;;;;;;5114533;28;20433;-57
2023/01/16 13:58:17;;;;;;;2.40;1.67;;;7.60;99.90;;;;;;5114386;28;20454;-57
2023/01/16 14:00:45;;;;;;;4.20;1.53;;;7.60;99.90;;;;;;5114119;28;20439;-57
2023/01/16 14:03:24;;;;;;;1.23;1.00;;;7.60;99.90;;;;;;5114445;28;20459;-57
2023/01/16 14:05:53;;;;;;;1.37;1.27;;;7.50;99.90;;;;;;5114454;28;20487;-57
2023/01/16 14:12:01;;;;;;;1.97;1.50;;;7.50;99.90;;;;;;5114286;28;20919;-57
2023/01/16 14:18:09;;;;;;;1.43;1.33;;;7.40;99.90;;;;;;5114021;28;20400;-57
2023/01/16 14:20:43;;;;;;;2.30;0.97;;;7.40;99.90;;;;;;5103783;28;20460;-57
2023/01/16 14:26:05;;;;;;;1.00;0.70;;;7.50;99.90;;;;;;5113985;28;20784;-57
2023/01/16 14:28:34;;;;;;;5.33;0.60;;;7.40;99.90;;;;;;5114099;28;20440;-57